createdAt,value
2023-01-20T00:02:33.394Z,99367.22
2023-01-20T00:07:35.360Z,99361.13
2023-01-20T00:12:37.262Z,99360.28
2023-01-20T00:17:39.086Z,99369.81
2023-01-20T00:22:40.891Z,99371.53
2023-01-20T00:27:42.713Z,99366.31
2023-01-20T00:32:44.697Z,99352.44
2023-01-20T00:37:46.763Z,99367.16
2023-01-20T00:42:48.642Z,99369.72
2023-01-20T00:47:50.466Z,99369.75
2023-01-20T00:52:52.283Z,99362.78
2023-01-20T00:57:54.181Z,99353.25
2023-01-20T01:02:56.144Z,99364.53
2023-01-20T01:07:58.040Z,99359.31
2023-01-20T01:13:00.951Z,99356.69
2023-01-20T01:18:02.898Z,99354.91
2023-01-20T01:23:04.779Z,99346.22
2023-01-20T01:28:06.680Z,99351.41
2023-01-20T01:33:08.571Z,99354.84
2023-01-20T01:38:10.435Z,99359.19
2023-01-20T01:43:35.757Z,99348.81
2023-01-20T01:48:40.468Z,99347.00
2023-01-20T01:53:46.093Z,99351.38
2023-01-20T01:58:48.901Z,99360.88
2023-01-20T02:03:59.988Z,99360.88
2023-01-20T02:09:02.674Z,99350.47
2023-01-20T02:14:04.302Z,99365.28
2023-01-20T02:19:08.730Z,99353.97
2023-01-20T02:24:43.239Z,99360.94
2023-01-20T02:29:48.181Z,99355.72
2023-01-20T02:34:57.339Z,99361.75
2023-01-20T02:40:28.332Z,99347.00
2023-01-20T02:45:42.135Z,99362.59
2023-01-20T02:50:54.137Z,99359.09
2023-01-20T02:55:56.001Z,99389.53
2023-01-20T03:01:08.478Z,99373.06
2023-01-20T03:06:20.242Z,99373.06
2023-01-20T03:11:22.140Z,99378.25
2023-01-20T03:16:24.792Z,99380.81
2023-01-20T03:21:26.397Z,99389.53
2023-01-20T03:26:28.448Z,99390.38
2023-01-20T03:31:34.227Z,99402.53
2023-01-20T03:36:36.175Z,99413.81
2023-01-20T03:41:49.950Z,99410.31
2023-01-20T03:47:18.146Z,99414.66
2023-01-20T03:52:48.121Z,99426.75
2023-01-20T03:58:01.816Z,99406.81
2023-01-20T04:03:09.343Z,99405.06
2023-01-20T04:08:11.417Z,99411.19
2023-01-20T04:13:13.722Z,99419.84
2023-01-20T04:18:17.561Z,99415.53
2023-01-20T04:23:28.077Z,99412.03
2023-01-20T04:28:30.425Z,99433.72
2023-01-20T04:33:32.334Z,99430.22
2023-01-20T04:38:34.273Z,99444.13
2023-01-20T04:43:36.219Z,99449.34
2023-01-20T04:48:38.030Z,99438.94
2023-01-20T04:53:39.818Z,99456.28
2023-01-20T04:58:41.906Z,99460.63
2023-01-20T05:03:44.041Z,99442.47
2023-01-20T05:08:45.835Z,99448.50
2023-01-20T05:13:47.588Z,99438.94
2023-01-20T05:18:49.619Z,99445.81
2023-01-20T05:23:53.956Z,99450.19
2023-01-20T05:28:55.768Z,99454.53
2023-01-20T05:33:57.540Z,99458.84
2023-01-20T05:38:59.251Z,99474.50
2023-01-20T05:44:00.991Z,99464.91
2023-01-20T05:49:02.783Z,99451.91
2023-01-20T05:54:04.671Z,99457.97
2023-01-20T05:59:06.459Z,99445.81
2023-01-20T06:04:08.292Z,99459.69
2023-01-20T06:09:10.037Z,99469.25
2023-01-20T06:14:12.457Z,99492.72
2023-01-20T06:19:14.221Z,99501.38
2023-01-20T06:24:16.088Z,99501.41
2023-01-20T06:29:17.834Z,99510.94
2023-01-20T06:34:19.588Z,99524.00
2023-01-20T06:39:21.335Z,99518.81
2023-01-20T06:44:23.136Z,99516.19
2023-01-20T06:49:24.922Z,99543.13
2023-01-20T06:54:26.660Z,99530.94
2023-01-20T06:59:28.409Z,99555.25
2023-01-20T07:04:30.356Z,99545.69
2023-01-20T07:09:32.096Z,99553.53
2023-01-20T07:14:33.819Z,99566.53
2023-01-20T07:19:35.644Z,99547.47
2023-01-20T07:24:37.450Z,99563.09
2023-01-20T07:29:39.166Z,99569.13
2023-01-20T07:34:40.914Z,99574.34
2023-01-20T07:39:42.739Z,99565.69
2023-01-20T07:44:44.520Z,99569.16
2023-01-20T07:49:46.301Z,99567.44
2023-01-20T07:54:48.094Z,99576.97
2023-01-20T07:59:49.855Z,99586.53
2023-01-20T08:04:51.691Z,99564.81
2023-01-20T08:09:53.508Z,99570.00
2023-01-20T08:14:55.398Z,99564.78
2023-01-20T08:19:57.294Z,99574.31
2023-01-20T08:24:59.257Z,99568.19
2023-01-20T08:30:00.978Z,99577.78
2023-01-20T08:35:02.790Z,99576.06
2023-01-20T08:40:09.268Z,99581.25
2023-01-20T08:45:11.213Z,99595.16
2023-01-20T08:50:14.098Z,99589.94
2023-01-20T08:55:16.238Z,99591.69
2023-01-20T09:00:18.798Z,99599.50
2023-01-20T09:05:20.569Z,99596.84
2023-01-20T09:10:22.324Z,99602.03
2023-01-20T09:15:25.602Z,99620.28
2023-01-20T09:20:27.739Z,99621.09
2023-01-20T09:25:29.549Z,99621.97
2023-01-20T09:30:31.349Z,99625.44
2023-01-20T09:35:33.087Z,99622.81
2023-01-20T09:40:58.486Z,99626.31
2023-01-20T09:46:14.459Z,99642.75
2023-01-20T09:51:31.393Z,99650.59
2023-01-20T09:56:35.878Z,99634.94
2023-01-20T10:01:48.537Z,99631.41
2023-01-20T10:06:52.763Z,99637.50
2023-01-20T10:11:58.984Z,99650.63
2023-01-20T10:17:37.159Z,99646.28
2023-01-20T10:22:56.482Z,99639.25
2023-01-20T10:28:11.669Z,99635.69
2023-01-20T10:33:23.825Z,99627.84
2023-01-20T10:38:53.572Z,99637.44
2023-01-20T10:43:56.053Z,99640.03
2023-01-20T10:49:16.380Z,99645.25
2023-01-20T10:54:29.216Z,99639.13
2023-01-20T10:59:52.157Z,99642.63
2023-01-20T11:05:18.971Z,99640.03
2023-01-20T11:10:22.797Z,99636.59
2023-01-20T11:15:29.594Z,99641.75
2023-01-20T11:20:31.358Z,99652.22
2023-01-20T11:25:33.137Z,99657.38
2023-01-20T11:30:34.916Z,99659.16
2023-01-20T11:35:36.943Z,99647.91
2023-01-20T11:40:38.673Z,99652.19
2023-01-20T11:45:40.404Z,99654.78
2023-01-20T11:50:49.529Z,99659.19
2023-01-20T11:55:56.265Z,99664.38
2023-01-20T12:01:07.784Z,99681.75
2023-01-20T12:06:19.303Z,99685.22
2023-01-20T12:11:31.113Z,99680.03
2023-01-20T12:16:33.000Z,99700.03
2023-01-20T12:21:35.785Z,99716.56
2023-01-20T12:26:37.552Z,99712.19
2023-01-20T12:31:39.335Z,99703.47
2023-01-20T12:36:53.771Z,99704.38
2023-01-20T12:42:12.121Z,99701.75
2023-01-20T12:47:22.982Z,99714.81
2023-01-20T12:52:58.331Z,99722.59
2023-01-20T12:58:30.974Z,99714.78
2023-01-20T13:03:41.462Z,99713.00
2023-01-20T13:09:06.289Z,99719.09
2023-01-20T13:14:22.994Z,99729.53
2023-01-20T13:19:37.311Z,99726.97
2023-01-20T13:24:39.570Z,99740.88
2023-01-20T13:29:50.948Z,99740.91
2023-01-20T13:34:52.898Z,99749.63
2023-01-20T13:39:55.171Z,99747.03
2023-01-20T13:45:12.248Z,99747.94
2023-01-20T13:50:31.534Z,99768.75
2023-01-20T13:55:42.682Z,99760.94
2023-01-20T14:00:44.630Z,99760.13
2023-01-20T14:05:56.345Z,99755.78
2023-01-20T14:11:08.072Z,99756.69
2023-01-20T14:16:34.606Z,99773.19
2023-01-20T14:21:40.698Z,99775.81
2023-01-20T14:26:42.433Z,99778.44
2023-01-20T14:31:45.964Z,99793.22
2023-01-20T14:36:48.005Z,99798.44
2023-01-20T14:41:51.606Z,99802.75
2023-01-20T14:46:55.577Z,99801.00
2023-01-20T14:51:57.568Z,99807.09
2023-01-20T14:56:59.973Z,99816.66
2023-01-20T15:02:02.831Z,99825.38
2023-01-20T15:07:04.798Z,99827.97
2023-01-20T15:12:47.964Z,99844.50
2023-01-20T15:18:13.919Z,99846.25
2023-01-20T15:23:27.602Z,99858.41
2023-01-20T15:28:29.543Z,99863.63
2023-01-20T15:33:31.446Z,99868.84
2023-01-20T15:38:33.185Z,99881.88
2023-01-20T15:43:34.930Z,99882.75
2023-01-20T15:48:36.703Z,99890.59
2023-01-20T15:53:38.468Z,99888.84
2023-01-20T15:58:40.312Z,99891.44
2023-01-20T16:03:42.723Z,99901.00
2023-01-20T16:08:46.578Z,99901.00
2023-01-20T16:13:48.539Z,99905.34
2023-01-20T16:18:50.360Z,99923.59
2023-01-20T16:23:52.226Z,99924.47
2023-01-20T16:28:55.708Z,99929.66
2023-01-20T16:33:57.628Z,99931.41
2023-01-20T16:38:59.560Z,99939.22
2023-01-20T16:44:01.419Z,99944.41
2023-01-20T16:49:03.254Z,99954.00
2023-01-20T16:54:05.139Z,99954.00
2023-01-20T16:59:06.981Z,99953.13
2023-01-20T17:04:08.749Z,99959.16
2023-01-20T17:09:10.590Z,99971.31
2023-01-20T17:14:12.397Z,99984.38
2023-01-20T17:19:16.136Z,99988.72
2023-01-20T17:24:19.257Z,99985.25
2023-01-20T17:29:21.612Z,99987.88
2023-01-20T17:34:23.511Z,99999.16
2023-01-20T17:39:25.479Z,100006.97
2023-01-20T17:44:27.387Z,100007.84
2023-01-20T17:49:29.185Z,100003.50
2023-01-20T17:54:31.073Z,100014.81
2023-01-20T17:59:32.851Z,100021.72
2023-01-20T18:04:34.640Z,100026.03
2023-01-20T18:09:36.636Z,100040.00
2023-01-20T18:14:38.491Z,100043.44
2023-01-20T18:19:40.361Z,100042.53
2023-01-20T18:24:42.235Z,100055.56
2023-01-20T18:29:44.041Z,100059.03
2023-01-20T18:34:46.540Z,100055.56
2023-01-20T18:39:48.313Z,100071.19
2023-01-20T18:44:50.844Z,100045.97
2023-01-20T18:49:53.910Z,100071.19
2023-01-20T18:54:55.759Z,100049.41
2023-01-20T18:59:58.077Z,100068.53
2023-01-20T19:04:59.981Z,100102.41
2023-01-20T19:10:02.013Z,100099.78
2023-01-20T19:15:07.223Z,100110.19
2023-01-20T19:20:10.161Z,100108.47
2023-01-20T19:25:11.933Z,100112.84
2023-01-20T19:30:15.564Z,100133.72
2023-01-20T19:35:17.505Z,100132.81
2023-01-20T19:40:19.402Z,100131.97
2023-01-20T19:45:21.295Z,100142.38
2023-01-20T19:50:23.182Z,100154.50
2023-01-20T19:55:25.069Z,100166.63
2023-01-20T20:00:26.850Z,100173.63
2023-01-20T20:05:28.863Z,100175.41
2023-01-20T20:10:30.747Z,100182.22
2023-01-20T20:15:32.723Z,100169.16
2023-01-20T20:20:34.648Z,100182.09
2023-01-20T20:25:36.507Z,100184.56
2023-01-20T20:30:38.438Z,100200.16
2023-01-20T20:35:40.381Z,100208.84
2023-01-20T20:40:42.387Z,100213.16
2023-01-20T20:45:44.286Z,100210.50
2023-01-20T20:50:46.227Z,100217.41
2023-01-20T20:55:48.175Z,100237.31
2023-01-20T21:00:50.589Z,100235.56
2023-01-20T21:05:52.511Z,100249.34
2023-01-20T21:10:54.439Z,100257.28
2023-01-20T21:16:04.738Z,100271.13
2023-01-20T21:21:08.304Z,100270.25
2023-01-20T21:26:12.344Z,100275.44
2023-01-20T21:31:16.160Z,100290.94
2023-01-20T21:36:18.081Z,100292.72
2023-01-20T21:41:19.984Z,100310.06
2023-01-20T21:46:21.778Z,100312.66
2023-01-20T21:51:23.686Z,100318.66
2023-01-20T21:56:25.599Z,100327.31
2023-01-20T22:01:27.575Z,100334.19
2023-01-20T22:06:29.557Z,100338.53
2023-01-20T22:11:31.416Z,100346.31
2023-01-20T22:16:33.341Z,100351.56
2023-01-20T22:21:35.380Z,100355.94
2023-01-20T22:26:37.215Z,100352.38
2023-01-20T22:31:39.388Z,100357.63
2023-01-20T22:36:41.271Z,100364.38
2023-01-20T22:41:43.169Z,100366.56
2023-01-20T22:46:45.030Z,100377.69
2023-01-20T22:51:46.955Z,100377.69
2023-01-20T22:56:48.822Z,100387.03
2023-01-20T23:01:50.679Z,100391.19
2023-01-20T23:06:52.513Z,100400.53
2023-01-20T23:11:54.295Z,100399.69
2023-01-20T23:16:56.136Z,100402.22
2023-01-20T23:21:58.064Z,100403.56
2023-01-20T23:26:59.962Z,100406.13
2023-01-20T23:32:01.915Z,100411.97
2023-01-20T23:37:04.005Z,100419.94
2023-01-20T23:42:05.942Z,100437.94
2023-01-20T23:47:07.717Z,100439.47
2023-01-20T23:52:09.572Z,100448.94
2023-01-20T23:57:11.460Z,100453.09
